sensor_id;sensor_type;location;lat;lon;timestamp;temperature;humidity
13354;DHT22;6746;50.892;4.064;2022-11-15T00:00:01;11.00;99.90
13354;DHT22;6746;50.892;4.064;2022-11-15T00:02:41;11.10;99.90
13354;DHT22;6746;50.892;4.064;2022-11-15T00:05:19;11.10;99.90
13354;DHT22;6746;50.892;4.064;2022-11-15T00:08:07;11.10;99.90
13354;DHT22;6746;50.892;4.064;2022-11-15T00:11:00;11.10;99.90
13354;DHT22;6746;50.892;4.064;2022-11-15T00:13:37;11.20;99.90
13354;DHT22;6746;50.892;4.064;2022-11-15T00:16:15;11.20;99.90
13354;DHT22;6746;50.892;4.064;2022-11-15T00:18:53;11.20;99.90
13354;DHT22;6746;50.892;4.064;2022-11-15T00:21:34;11.30;99.90
13354;DHT22;6746;50.892;4.064;2022-11-15T00:24:12;11.20;99.90
13354;DHT22;6746;50.892;4.064;2022-11-15T00:26:58;11.30;99.90
13354;DHT22;6746;50.892;4.064;2022-11-15T00:29:36;11.30;99.90
13354;DHT22;6746;50.892;4.064;2022-11-15T00:32:24;11.40;99.90
13354;DHT22;6746;50.892;4.064;2022-11-15T00:35:12;11.30;99.90
13354;DHT22;6746;50.892;4.064;2022-11-15T00:38:01;11.40;99.90
13354;DHT22;6746;50.892;4.064;2022-11-15T00:40:48;11.40;99.90
13354;DHT22;6746;50.892;4.064;2022-11-15T00:43:37;11.50;99.90
13354;DHT22;6746;50.892;4.064;2022-11-15T00:46:25;11.40;99.90
13354;DHT22;6746;50.892;4.064;2022-11-15T00:49:13;11.40;99.90
13354;DHT22;6746;50.892;4.064;2022-11-15T00:52:01;11.50;99.90
13354;DHT22;6746;50.892;4.064;2022-11-15T00:54:49;11.40;99.90
13354;DHT22;6746;50.892;4.064;2022-11-15T00:57:28;11.50;99.90
13354;DHT22;6746;50.892;4.064;2022-11-15T01:00:06;11.50;99.90
13354;DHT22;6746;50.892;4.064;2022-11-15T01:02:44;11.50;99.90
13354;DHT22;6746;50.892;4.064;2022-11-15T01:05:22;11.40;99.90
13354;DHT22;6746;50.892;4.064;2022-11-15T01:08:13;11.40;99.90
13354;DHT22;6746;50.892;4.064;2022-11-15T01:11:05;11.40;99.90
13354;DHT22;6746;50.892;4.064;2022-11-15T01:13:39;11.40;99.90
13354;DHT22;6746;50.892;4.064;2022-11-15T01:16:17;11.40;99.90
13354;DHT22;6746;50.892;4.064;2022-11-15T01:18:55;11.40;99.90
13354;DHT22;6746;50.892;4.064;2022-11-15T01:21:34;11.50;99.90
13354;DHT22;6746;50.892;4.064;2022-11-15T01:24:22;11.50;99.90
13354;DHT22;6746;50.892;4.064;2022-11-15T01:27:09;11.40;99.90
13354;DHT22;6746;50.892;4.064;2022-11-15T01:29:51;11.40;99.90
13354;DHT22;6746;50.892;4.064;2022-11-15T01:32:29;11.40;99.90
13354;DHT22;6746;50.892;4.064;2022-11-15T01:35:07;11.40;99.90
13354;DHT22;6746;50.892;4.064;2022-11-15T01:37:45;11.50;99.90
13354;DHT22;6746;50.892;4.064;2022-11-15T01:40:26;11.40;99.90
13354;DHT22;6746;50.892;4.064;2022-11-15T01:43:23;11.50;99.90
13354;DHT22;6746;50.892;4.064;2022-11-15T01:48:44;11.50;99.90
13354;DHT22;6746;50.892;4.064;2022-11-15T01:51:25;11.50;99.90
13354;DHT22;6746;50.892;4.064;2022-11-15T01:54:06;11.40;99.90
13354;DHT22;6746;50.892;4.064;2022-11-15T01:56:45;11.40;99.90
13354;DHT22;6746;50.892;4.064;2022-11-15T01:59:22;11.40;99.90
13354;DHT22;6746;50.892;4.064;2022-11-15T02:02:03;11.40;99.90
13354;DHT22;6746;50.892;4.064;2022-11-15T02:04:41;11.40;99.90
13354;DHT22;6746;50.892;4.064;2022-11-15T02:07:26;11.40;99.90
13354;DHT22;6746;50.892;4.064;2022-11-15T02:10:06;11.40;99.90
13354;DHT22;6746;50.892;4.064;2022-11-15T02:12:45;11.40;99.90
13354;DHT22;6746;50.892;4.064;2022-11-15T02:15:24;11.50;99.90
13354;DHT22;6746;50.892;4.064;2022-11-15T02:18:16;11.50;99.90
13354;DHT22;6746;50.892;4.064;2022-11-15T02:21:10;11.40;99.90
13354;DHT22;6746;50.892;4.064;2022-11-15T02:24:24;11.50;99.90
13354;DHT22;6746;50.892;4.064;2022-11-15T02:27:19;11.40;99.90
13354;DHT22;6746;50.892;4.064;2022-11-15T02:33:46;11.30;99.90
13354;DHT22;6746;50.892;4.064;2022-11-15T02:39:59;11.20;99.90
13354;DHT22;6746;50.892;4.064;2022-11-15T02:43:00;11.20;99.90
13354;DHT22;6746;50.892;4.064;2022-11-15T02:45:50;11.20;99.90
13354;DHT22;6746;50.892;4.064;2022-11-15T02:48:36;11.10;99.90
13354;DHT22;6746;50.892;4.064;2022-11-15T02:51:24;11.10;99.90
13354;DHT22;6746;50.892;4.064;2022-11-15T02:54:14;11.00;99.90
13354;DHT22;6746;50.892;4.064;2022-11-15T02:57:14;11.10;99.90
13354;DHT22;6746;50.892;4.064;2022-11-15T03:00:07;11.00;99.90
13354;DHT22;6746;50.892;4.064;2022-11-15T03:02:57;11.10;99.90
13354;DHT22;6746;50.892;4.064;2022-11-15T03:05:53;11.10;99.90
13354;DHT22;6746;50.892;4.064;2022-11-15T03:11:29;11.10;99.90
13354;DHT22;6746;50.892;4.064;2022-11-15T03:14:10;11.10;99.90
13354;DHT22;6746;50.892;4.064;2022-11-15T03:16:47;11.10;99.90
13354;DHT22;6746;50.892;4.064;2022-11-15T03:19:45;11.10;99.90
13354;DHT22;6746;50.892;4.064;2022-11-15T03:22:24;11.10;99.90
13354;DHT22;6746;50.892;4.064;2022-11-15T03:25:11;11.10;99.90
13354;DHT22;6746;50.892;4.064;2022-11-15T03:27:52;11.00;99.90
13354;DHT22;6746;50.892;4.064;2022-11-15T03:30:30;11.10;99.90
13354;DHT22;6746;50.892;4.064;2022-11-15T03:33:10;11.10;99.90
13354;DHT22;6746;50.892;4.064;2022-11-15T03:35:48;11.10;99.90
13354;DHT22;6746;50.892;4.064;2022-11-15T03:38:34;11.00;99.90
13354;DHT22;6746;50.892;4.064;2022-11-15T03:41:15;11.00;99.90
13354;DHT22;6746;50.892;4.064;2022-11-15T03:47:21;11.00;99.90
13354;DHT22;6746;50.892;4.064;2022-11-15T03:50:22;11.00;99.90
13354;DHT22;6746;50.892;4.064;2022-11-15T03:52:50;11.00;99.90
13354;DHT22;6746;50.892;4.064;2022-11-15T03:55:28;11.00;99.90
13354;DHT22;6746;50.892;4.064;2022-11-15T03:58:09;10.90;99.90
13354;DHT22;6746;50.892;4.064;2022-11-15T04:00:47;10.90;99.90
13354;DHT22;6746;50.892;4.064;2022-11-15T04:03:35;10.90;99.90
13354;DHT22;6746;50.892;4.064;2022-11-15T04:06:23;10.90;99.90
13354;DHT22;6746;50.892;4.064;2022-11-15T04:09:11;10.80;99.90
13354;DHT22;6746;50.892;4.064;2022-11-15T04:11:59;10.80;99.90
13354;DHT22;6746;50.892;4.064;2022-11-15T04:14:48;10.80;99.90
13354;DHT22;6746;50.892;4.064;2022-11-15T04:17:43;10.70;99.90
13354;DHT22;6746;50.892;4.064;2022-11-15T04:20:35;10.70;99.90
13354;DHT22;6746;50.892;4.064;2022-11-15T04:23:41;10.70;99.90
13354;DHT22;6746;50.892;4.064;2022-11-15T04:26:37;10.60;99.90
13354;DHT22;6746;50.892;4.064;2022-11-15T04:29:15;10.70;99.90
13354;DHT22;6746;50.892;4.064;2022-11-15T04:32:11;10.70;99.90
13354;DHT22;6746;50.892;4.064;2022-11-15T04:34:50;10.60;99.90
13354;DHT22;6746;50.892;4.064;2022-11-15T04:37:37;10.50;99.90
13354;DHT22;6746;50.892;4.064;2022-11-15T04:40:18;10.50;99.90
13354;DHT22;6746;50.892;4.064;2022-11-15T04:42:56;10.50;99.90
13354;DHT22;6746;50.892;4.064;2022-11-15T04:45:42;10.40;99.90
13354;DHT22;6746;50.892;4.064;2022-11-15T04:48:20;10.40;99.90
13354;DHT22;6746;50.892;4.064;2022-11-15T04:50:58;10.30;99.90
13354;DHT22;6746;50.892;4.064;2022-11-15T04:53:36;10.20;99.90
13354;DHT22;6746;50.892;4.064;2022-11-15T04:56:17;10.20;99.90
13354;DHT22;6746;50.892;4.064;2022-11-15T04:58:55;10.10;99.90
13354;DHT22;6746;50.892;4.064;2022-11-15T05:01:36;10.10;99.90
13354;DHT22;6746;50.892;4.064;2022-11-15T05:04:14;10.00;99.90
13354;DHT22;6746;50.892;4.064;2022-11-15T05:06:58;9.90;99.90
13354;DHT22;6746;50.892;4.064;2022-11-15T05:09:36;9.90;99.90
13354;DHT22;6746;50.892;4.064;2022-11-15T05:12:17;9.80;99.90
13354;DHT22;6746;50.892;4.064;2022-11-15T05:14:55;9.70;99.90
13354;DHT22;6746;50.892;4.064;2022-11-15T05:17:38;9.70;99.90
13354;DHT22;6746;50.892;4.064;2022-11-15T05:20:16;9.70;99.90
13354;DHT22;6746;50.892;4.064;2022-11-15T05:22:56;9.60;99.90
13354;DHT22;6746;50.892;4.064;2022-11-15T05:25:35;9.60;99.90
13354;DHT22;6746;50.892;4.064;2022-11-15T05:28:25;9.50;99.90
13354;DHT22;6746;50.892;4.064;2022-11-15T05:31:10;9.50;99.90
13354;DHT22;6746;50.892;4.064;2022-11-15T05:33:48;9.60;99.90
13354;DHT22;6746;50.892;4.064;2022-11-15T05:36:37;9.70;99.90
13354;DHT22;6746;50.892;4.064;2022-11-15T05:39:24;9.80;99.90
13354;DHT22;6746;50.892;4.064;2022-11-15T05:42:06;9.90;99.90
13354;DHT22;6746;50.892;4.064;2022-11-15T05:44:43;10.10;99.90
13354;DHT22;6746;50.892;4.064;2022-11-15T05:47:30;10.20;99.90
13354;DHT22;6746;50.892;4.064;2022-11-15T05:50:18;10.20;99.90
13354;DHT22;6746;50.892;4.064;2022-11-15T05:53:06;10.30;99.90
13354;DHT22;6746;50.892;4.064;2022-11-15T05:55:52;10.20;99.90
13354;DHT22;6746;50.892;4.064;2022-11-15T05:58:31;10.20;99.90
13354;DHT22;6746;50.892;4.064;2022-11-15T06:01:11;10.20;99.90
13354;DHT22;6746;50.892;4.064;2022-11-15T06:03:49;10.20;99.90
13354;DHT22;6746;50.892;4.064;2022-11-15T06:06:37;10.10;99.90
13354;DHT22;6746;50.892;4.064;2022-11-15T06:09:24;10.00;99.90
13354;DHT22;6746;50.892;4.064;2022-11-15T06:12:13;9.90;99.90
13354;DHT22;6746;50.892;4.064;2022-11-15T06:14:52;9.70;99.90
13354;DHT22;6746;50.892;4.064;2022-11-15T06:17:31;9.60;99.90
13354;DHT22;6746;50.892;4.064;2022-11-15T06:20:09;9.50;99.90
13354;DHT22;6746;50.892;4.064;2022-11-15T06:22:47;9.30;99.90
13354;DHT22;6746;50.892;4.064;2022-11-15T06:25:35;9.20;99.90
13354;DHT22;6746;50.892;4.064;2022-11-15T06:28:23;9.10;99.90
13354;DHT22;6746;50.892;4.064;2022-11-15T06:31:11;9.00;99.90
13354;DHT22;6746;50.892;4.064;2022-11-15T06:33:55;9.00;99.90
13354;DHT22;6746;50.892;4.064;2022-11-15T06:36:36;8.90;99.90
13354;DHT22;6746;50.892;4.064;2022-11-15T06:39:17;8.80;99.90
13354;DHT22;6746;50.892;4.064;2022-11-15T06:41:55;8.70;99.90
13354;DHT22;6746;50.892;4.064;2022-11-15T06:44:33;8.70;99.90
13354;DHT22;6746;50.892;4.064;2022-11-15T06:47:11;8.70;99.90
13354;DHT22;6746;50.892;4.064;2022-11-15T06:49:57;8.60;99.90
13354;DHT22;6746;50.892;4.064;2022-11-15T06:52:35;8.60;99.90
13354;DHT22;6746;50.892;4.064;2022-11-15T06:55:13;8.70;99.90
13354;DHT22;6746;50.892;4.064;2022-11-15T06:57:51;8.60;99.90
13354;DHT22;6746;50.892;4.064;2022-11-15T07:00:29;8.70;99.90
13354;DHT22;6746;50.892;4.064;2022-11-15T07:03:00;8.70;99.90
13354;DHT22;6746;50.892;4.064;2022-11-15T07:05:38;8.70;99.90
13354;DHT22;6746;50.892;4.064;2022-11-15T07:08:15;8.70;99.90
13354;DHT22;6746;50.892;4.064;2022-11-15T07:10:43;8.80;99.90
13354;DHT22;6746;50.892;4.064;2022-11-15T07:13:24;8.80;99.90
13354;DHT22;6746;50.892;4.064;2022-11-15T07:15:53;8.80;99.90
13354;DHT22;6746;50.892;4.064;2022-11-15T07:18:22;8.70;99.90
13354;DHT22;6746;50.892;4.064;2022-11-15T07:20:50;8.70;99.90
13354;DHT22;6746;50.892;4.064;2022-11-15T07:23:20;8.70;99.90
13354;DHT22;6746;50.892;4.064;2022-11-15T07:25:57;8.80;99.90
13354;DHT22;6746;50.892;4.064;2022-11-15T07:28:25;8.80;99.90
13354;DHT22;6746;50.892;4.064;2022-11-15T07:30:56;8.90;99.90
13354;DHT22;6746;50.892;4.064;2022-11-15T07:33:25;8.90;99.90
13354;DHT22;6746;50.892;4.064;2022-11-15T07:36:04;8.90;99.90
13354;DHT22;6746;50.892;4.064;2022-11-15T07:38:41;9.00;99.90
13354;DHT22;6746;50.892;4.064;2022-11-15T07:41:15;9.00;99.90
13354;DHT22;6746;50.892;4.064;2022-11-15T07:43:47;9.00;99.90
13354;DHT22;6746;50.892;4.064;2022-11-15T07:46:35;9.10;99.90
13354;DHT22;6746;50.892;4.064;2022-11-15T07:49:13;9.10;99.90
13354;DHT22;6746;50.892;4.064;2022-11-15T07:51:51;9.20;99.90
13354;DHT22;6746;50.892;4.064;2022-11-15T07:54:19;9.20;99.90
13354;DHT22;6746;50.892;4.064;2022-11-15T07:56:48;9.30;99.90
13354;DHT22;6746;50.892;4.064;2022-11-15T07:59:27;9.30;99.90
13354;DHT22;6746;50.892;4.064;2022-11-15T08:01:55;9.40;99.90
13354;DHT22;6746;50.892;4.064;2022-11-15T08:04:24;9.40;99.90
13354;DHT22;6746;50.892;4.064;2022-11-15T08:07:02;9.50;99.90
13354;DHT22;6746;50.892;4.064;2022-11-15T08:09:31;9.50;99.90
13354;DHT22;6746;50.892;4.064;2022-11-15T08:12:01;9.60;99.90
13354;DHT22;6746;50.892;4.064;2022-11-15T08:14:40;9.70;99.90
13354;DHT22;6746;50.892;4.064;2022-11-15T08:17:08;9.80;99.90
13354;DHT22;6746;50.892;4.064;2022-11-15T08:19:47;9.80;99.90
13354;DHT22;6746;50.892;4.064;2022-11-15T08:22:25;9.90;99.90
13354;DHT22;6746;50.892;4.064;2022-11-15T08:25:03;10.00;99.90
13354;DHT22;6746;50.892;4.064;2022-11-15T08:27:34;10.00;99.90
13354;DHT22;6746;50.892;4.064;2022-11-15T08:30:06;10.10;99.90
13354;DHT22;6746;50.892;4.064;2022-11-15T08:32:45;10.10;99.90
13354;DHT22;6746;50.892;4.064;2022-11-15T08:35:23;10.10;99.90
13354;DHT22;6746;50.892;4.064;2022-11-15T08:38:01;10.20;99.90
13354;DHT22;6746;50.892;4.064;2022-11-15T08:40:29;10.30;99.90
13354;DHT22;6746;50.892;4.064;2022-11-15T08:42:58;10.30;99.90
13354;DHT22;6746;50.892;4.064;2022-11-15T08:45:27;10.30;99.90
13354;DHT22;6746;50.892;4.064;2022-11-15T08:47:56;10.40;99.90
13354;DHT22;6746;50.892;4.064;2022-11-15T08:50:29;10.40;99.90
13354;DHT22;6746;50.892;4.064;2022-11-15T08:53:05;10.50;99.90
13354;DHT22;6746;50.892;4.064;2022-11-15T08:55:39;10.60;99.90
13354;DHT22;6746;50.892;4.064;2022-11-15T08:58:07;10.70;99.90
13354;DHT22;6746;50.892;4.064;2022-11-15T09:00:46;10.60;99.90
13354;DHT22;6746;50.892;4.064;2022-11-15T09:03:17;10.60;99.90
13354;DHT22;6746;50.892;4.064;2022-11-15T09:05:46;10.70;99.90
13354;DHT22;6746;50.892;4.064;2022-11-15T09:08:14;10.90;99.90
13354;DHT22;6746;50.892;4.064;2022-11-15T09:10:43;11.00;99.90
13354;DHT22;6746;50.892;4.064;2022-11-15T09:13:22;11.10;99.90
13354;DHT22;6746;50.892;4.064;2022-11-15T09:15:50;11.20;99.90
13354;DHT22;6746;50.892;4.064;2022-11-15T09:18:18;11.30;99.90
13354;DHT22;6746;50.892;4.064;2022-11-15T09:20:49;11.40;99.90
13354;DHT22;6746;50.892;4.064;2022-11-15T09:23:18;11.40;99.90
13354;DHT22;6746;50.892;4.064;2022-11-15T09:26:00;11.40;99.90
13354;DHT22;6746;50.892;4.064;2022-11-15T09:28:32;11.50;99.90
13354;DHT22;6746;50.892;4.064;2022-11-15T09:31:01;11.50;99.90
13354;DHT22;6746;50.892;4.064;2022-11-15T09:33:32;11.60;99.90
13354;DHT22;6746;50.892;4.064;2022-11-15T09:36:01;11.70;99.90
13354;DHT22;6746;50.892;4.064;2022-11-15T09:38:39;11.80;99.90
13354;DHT22;6746;50.892;4.064;2022-11-15T09:44:07;11.70;99.90
13354;DHT22;6746;50.892;4.064;2022-11-15T09:50:31;11.80;99.90
13354;DHT22;6746;50.892;4.064;2022-11-15T09:53:13;11.80;99.90
13354;DHT22;6746;50.892;4.064;2022-11-15T09:55:47;12.00;99.90
13354;DHT22;6746;50.892;4.064;2022-11-15T10:00:52;12.10;99.90
13354;DHT22;6746;50.892;4.064;2022-11-15T10:03:31;12.20;99.90
13354;DHT22;6746;50.892;4.064;2022-11-15T10:05:59;12.30;99.90
13354;DHT22;6746;50.892;4.064;2022-11-15T10:11:26;12.30;99.90
13354;DHT22;6746;50.892;4.064;2022-11-15T10:14:09;12.30;99.90
13354;DHT22;6746;50.892;4.064;2022-11-15T10:16:51;12.30;99.90
13354;DHT22;6746;50.892;4.064;2022-11-15T10:22:31;12.30;99.90
13354;DHT22;6746;50.892;4.064;2022-11-15T10:27:31;12.40;99.90
13354;DHT22;6746;50.892;4.064;2022-11-15T10:30:13;12.40;99.90
13354;DHT22;6746;50.892;4.064;2022-11-15T10:33:08;12.40;99.90
13354;DHT22;6746;50.892;4.064;2022-11-15T10:35:47;12.40;99.90
13354;DHT22;6746;50.892;4.064;2022-11-15T10:38:18;12.40;99.90
13354;DHT22;6746;50.892;4.064;2022-11-15T10:40:54;12.40;99.90
13354;DHT22;6746;50.892;4.064;2022-11-15T10:43:32;12.50;99.90
13354;DHT22;6746;50.892;4.064;2022-11-15T10:46:08;12.50;99.90
13354;DHT22;6746;50.892;4.064;2022-11-15T10:48:28;12.60;99.90
13354;DHT22;6746;50.892;4.064;2022-11-15T10:50:57;12.70;99.90
13354;DHT22;6746;50.892;4.064;2022-11-15T10:53:27;12.70;99.90
13354;DHT22;6746;50.892;4.064;2022-11-15T10:56:03;12.80;99.90
13354;DHT22;6746;50.892;4.064;2022-11-15T11:01:10;12.90;99.90
13354;DHT22;6746;50.892;4.064;2022-11-15T11:03:40;12.90;99.90
13354;DHT22;6746;50.892;4.064;2022-11-15T11:06:17;13.00;99.90
13354;DHT22;6746;50.892;4.064;2022-11-15T11:08:57;13.00;99.90
13354;DHT22;6746;50.892;4.064;2022-11-15T11:11:47;13.00;99.90
13354;DHT22;6746;50.892;4.064;2022-11-15T11:14:21;13.00;99.90
13354;DHT22;6746;50.892;4.064;2022-11-15T11:17:13;13.10;99.90
13354;DHT22;6746;50.892;4.064;2022-11-15T11:28:39;13.10;99.90
13354;DHT22;6746;50.892;4.064;2022-11-15T11:36:50;13.10;99.90
13354;DHT22;6746;50.892;4.064;2022-11-15T11:39:18;13.10;99.90
13354;DHT22;6746;50.892;4.064;2022-11-15T11:44:55;13.20;99.90
13354;DHT22;6746;50.892;4.064;2022-11-15T11:47:31;13.20;99.90
13354;DHT22;6746;50.892;4.064;2022-11-15T11:50:17;13.20;99.90
13354;DHT22;6746;50.892;4.064;2022-11-15T11:53:12;13.20;99.90
13354;DHT22;6746;50.892;4.064;2022-11-15T11:55:45;13.20;99.90
13354;DHT22;6746;50.892;4.064;2022-11-15T12:00:46;13.20;99.90
13354;DHT22;6746;50.892;4.064;2022-11-15T12:03:24;13.20;99.90
13354;DHT22;6746;50.892;4.064;2022-11-15T12:05:58;13.20;99.90
13354;DHT22;6746;50.892;4.064;2022-11-15T12:11:16;13.20;99.90
13354;DHT22;6746;50.892;4.064;2022-11-15T12:13:49;13.20;99.90
13354;DHT22;6746;50.892;4.064;2022-11-15T12:16:27;13.20;99.90
13354;DHT22;6746;50.892;4.064;2022-11-15T12:19:07;13.10;99.90
13354;DHT22;6746;50.892;4.064;2022-11-15T12:30:14;13.20;99.90
13354;DHT22;6746;50.892;4.064;2022-11-15T12:32:59;13.30;99.90
13354;DHT22;6746;50.892;4.064;2022-11-15T12:35:40;13.30;99.90
13354;DHT22;6746;50.892;4.064;2022-11-15T12:38:11;13.30;99.90
13354;DHT22;6746;50.892;4.064;2022-11-15T12:40:39;13.30;99.90
13354;DHT22;6746;50.892;4.064;2022-11-15T12:43:35;13.30;99.90
13354;DHT22;6746;50.892;4.064;2022-11-15T12:45:42;13.40;99.90
13354;DHT22;6746;50.892;4.064;2022-11-15T12:53:32;13.50;99.90
13354;DHT22;6746;50.892;4.064;2022-11-15T13:06:50;13.50;99.90
13354;DHT22;6746;50.892;4.064;2022-11-15T13:10:14;13.50;99.90
13354;DHT22;6746;50.892;4.064;2022-11-15T13:12:01;13.50;99.90
13354;DHT22;6746;50.892;4.064;2022-11-15T13:20:48;13.50;99.90
13354;DHT22;6746;50.892;4.064;2022-11-15T13:22:28;13.50;99.90
13354;DHT22;6746;50.892;4.064;2022-11-15T13:33:35;13.40;99.90
13354;DHT22;6746;50.892;4.064;2022-11-15T13:36:19;13.40;99.90
13354;DHT22;6746;50.892;4.064;2022-11-15T13:39:02;13.40;99.90
13354;DHT22;6746;50.892;4.064;2022-11-15T13:41:32;13.40;99.90
13354;DHT22;6746;50.892;4.064;2022-11-15T13:44:17;13.40;99.90
13354;DHT22;6746;50.892;4.064;2022-11-15T13:46:35;13.40;99.90
13354;DHT22;6746;50.892;4.064;2022-11-15T13:49:11;13.40;99.90
13354;DHT22;6746;50.892;4.064;2022-11-15T13:51:44;13.40;99.90
13354;DHT22;6746;50.892;4.064;2022-11-15T13:54:27;13.40;99.90
13354;DHT22;6746;50.892;4.064;2022-11-15T13:57:11;13.40;99.90
13354;DHT22;6746;50.892;4.064;2022-11-15T13:59:54;13.40;99.90
13354;DHT22;6746;50.892;4.064;2022-11-15T14:02:27;13.40;99.90
13354;DHT22;6746;50.892;4.064;2022-11-15T14:05:19;13.30;99.90
13354;DHT22;6746;50.892;4.064;2022-11-15T14:07:59;13.30;99.90
13354;DHT22;6746;50.892;4.064;2022-11-15T14:10:38;13.20;99.90
13354;DHT22;6746;50.892;4.064;2022-11-15T14:13:27;13.10;99.90
13354;DHT22;6746;50.892;4.064;2022-11-15T14:16:18;13.10;99.90
13354;DHT22;6746;50.892;4.064;2022-11-15T14:18:46;13.00;99.90
13354;DHT22;6746;50.892;4.064;2022-11-15T14:21:11;13.00;99.90
13354;DHT22;6746;50.892;4.064;2022-11-15T14:23:49;12.90;99.90
13354;DHT22;6746;50.892;4.064;2022-11-15T14:26:28;12.90;99.90
13354;DHT22;6746;50.892;4.064;2022-11-15T14:29:21;12.80;99.90
13354;DHT22;6746;50.892;4.064;2022-11-15T14:31:44;12.80;99.90
13354;DHT22;6746;50.892;4.064;2022-11-15T14:34:13;12.70;99.90
13354;DHT22;6746;50.892;4.064;2022-11-15T14:36:41;12.70;99.90
13354;DHT22;6746;50.892;4.064;2022-11-15T14:39:12;12.60;99.90
13354;DHT22;6746;50.892;4.064;2022-11-15T14:41:40;12.50;99.90
13354;DHT22;6746;50.892;4.064;2022-11-15T14:44:16;12.50;99.90
13354;DHT22;6746;50.892;4.064;2022-11-15T14:46:44;12.40;99.90
13354;DHT22;6746;50.892;4.064;2022-11-15T14:49:13;12.30;99.90
13354;DHT22;6746;50.892;4.064;2022-11-15T14:51:41;12.30;99.90
13354;DHT22;6746;50.892;4.064;2022-11-15T14:54:19;12.30;99.90
13354;DHT22;6746;50.892;4.064;2022-11-15T14:57:06;12.20;99.90
13354;DHT22;6746;50.892;4.064;2022-11-15T14:59:44;12.20;99.90
13354;DHT22;6746;50.892;4.064;2022-11-15T15:02:30;12.20;99.90
13354;DHT22;6746;50.892;4.064;2022-11-15T15:05:12;12.10;99.90
13354;DHT22;6746;50.892;4.064;2022-11-15T15:07:48;12.10;99.90
13354;DHT22;6746;50.892;4.064;2022-11-15T15:10:30;12.10;99.90
13354;DHT22;6746;50.892;4.064;2022-11-15T15:12:51;12.10;99.90
13354;DHT22;6746;50.892;4.064;2022-11-15T15:15:23;12.00;99.90
13354;DHT22;6746;50.892;4.064;2022-11-15T15:17:47;12.00;99.90
13354;DHT22;6746;50.892;4.064;2022-11-15T15:20:16;12.00;99.90
13354;DHT22;6746;50.892;4.064;2022-11-15T15:22:44;12.00;99.90
13354;DHT22;6746;50.892;4.064;2022-11-15T15:25:26;12.00;99.90
13354;DHT22;6746;50.892;4.064;2022-11-15T15:27:51;12.00;99.90
13354;DHT22;6746;50.892;4.064;2022-11-15T15:30:28;11.90;99.90
13354;DHT22;6746;50.892;4.064;2022-11-15T15:32:55;11.90;99.90
13354;DHT22;6746;50.892;4.064;2022-11-15T15:35:32;11.90;99.90
13354;DHT22;6746;50.892;4.064;2022-11-15T15:38:00;12.00;99.90
13354;DHT22;6746;50.892;4.064;2022-11-15T15:40:30;11.90;99.90
13354;DHT22;6746;50.892;4.064;2022-11-15T15:42:56;11.90;99.90
13354;DHT22;6746;50.892;4.064;2022-11-15T15:45:25;11.90;99.90
13354;DHT22;6746;50.892;4.064;2022-11-15T15:47:53;11.90;99.90
13354;DHT22;6746;50.892;4.064;2022-11-15T15:50:34;11.90;99.90
13354;DHT22;6746;50.892;4.064;2022-11-15T15:53:04;11.90;99.90
13354;DHT22;6746;50.892;4.064;2022-11-15T15:55:32;12.00;99.90
13354;DHT22;6746;50.892;4.064;2022-11-15T15:58:09;12.00;99.90
13354;DHT22;6746;50.892;4.064;2022-11-15T16:00:37;12.00;99.90
13354;DHT22;6746;50.892;4.064;2022-11-15T16:03:05;12.00;99.90
13354;DHT22;6746;50.892;4.064;2022-11-15T16:05:34;12.00;99.90
13354;DHT22;6746;50.892;4.064;2022-11-15T16:08:05;12.00;99.90
13354;DHT22;6746;50.892;4.064;2022-11-15T16:10:33;12.00;99.90
13354;DHT22;6746;50.892;4.064;2022-11-15T16:13:11;12.00;99.90
13354;DHT22;6746;50.892;4.064;2022-11-15T16:15:50;12.00;99.90
13354;DHT22;6746;50.892;4.064;2022-11-15T16:18:37;12.00;99.90
13354;DHT22;6746;50.892;4.064;2022-11-15T16:21:14;12.00;99.90
13354;DHT22;6746;50.892;4.064;2022-11-15T16:23:53;12.00;99.90
13354;DHT22;6746;50.892;4.064;2022-11-15T16:26:35;12.00;99.90
13354;DHT22;6746;50.892;4.064;2022-11-15T16:29:09;12.00;99.90
13354;DHT22;6746;50.892;4.064;2022-11-15T16:31:49;12.00;99.90
13354;DHT22;6746;50.892;4.064;2022-11-15T16:34:27;12.10;99.90
13354;DHT22;6746;50.892;4.064;2022-11-15T16:37:05;12.10;99.90
13354;DHT22;6746;50.892;4.064;2022-11-15T16:39:43;12.10;99.90
13354;DHT22;6746;50.892;4.064;2022-11-15T16:42:31;12.10;99.90
13354;DHT22;6746;50.892;4.064;2022-11-15T16:45:17;12.10;99.90
13354;DHT22;6746;50.892;4.064;2022-11-15T16:47:55;12.10;99.90
13354;DHT22;6746;50.892;4.064;2022-11-15T16:50:43;12.10;99.90
13354;DHT22;6746;50.892;4.064;2022-11-15T16:53:30;12.10;99.90
13354;DHT22;6746;50.892;4.064;2022-11-15T16:56:17;12.10;99.90
13354;DHT22;6746;50.892;4.064;2022-11-15T16:58:57;12.10;99.90
13354;DHT22;6746;50.892;4.064;2022-11-15T17:01:45;12.00;99.90
13354;DHT22;6746;50.892;4.064;2022-11-15T17:04:33;12.10;99.90
13354;DHT22;6746;50.892;4.064;2022-11-15T17:07:11;12.00;99.90
13354;DHT22;6746;50.892;4.064;2022-11-15T17:09:49;12.00;99.90
13354;DHT22;6746;50.892;4.064;2022-11-15T17:12:30;12.00;99.90
13354;DHT22;6746;50.892;4.064;2022-11-15T17:15:18;12.10;99.90
13354;DHT22;6746;50.892;4.064;2022-11-15T17:17:59;12.00;99.90
13354;DHT22;6746;50.892;4.064;2022-11-15T17:20:37;12.00;99.90
13354;DHT22;6746;50.892;4.064;2022-11-15T17:23:17;12.00;99.90
13354;DHT22;6746;50.892;4.064;2022-11-15T17:25:58;12.00;99.90
13354;DHT22;6746;50.892;4.064;2022-11-15T17:28:36;12.10;99.90
13354;DHT22;6746;50.892;4.064;2022-11-15T17:31:14;12.00;99.90
13354;DHT22;6746;50.892;4.064;2022-11-15T17:34:03;12.00;99.90
13354;DHT22;6746;50.892;4.064;2022-11-15T17:36:50;12.00;99.90
13354;DHT22;6746;50.892;4.064;2022-11-15T17:39:38;12.00;99.90
13354;DHT22;6746;50.892;4.064;2022-11-15T17:42:19;12.10;99.90
13354;DHT22;6746;50.892;4.064;2022-11-15T17:44:57;12.00;99.90
13354;DHT22;6746;50.892;4.064;2022-11-15T17:47:35;12.00;99.90
13354;DHT22;6746;50.892;4.064;2022-11-15T17:50:13;12.00;99.90
13354;DHT22;6746;50.892;4.064;2022-11-15T17:52:53;12.00;99.90
13354;DHT22;6746;50.892;4.064;2022-11-15T17:55:33;12.00;99.90
13354;DHT22;6746;50.892;4.064;2022-11-15T17:58:14;12.00;99.90
13354;DHT22;6746;50.892;4.064;2022-11-15T18:00:52;12.00;99.90
13354;DHT22;6746;50.892;4.064;2022-11-15T18:03:38;12.00;99.90
13354;DHT22;6746;50.892;4.064;2022-11-15T18:06:16;12.00;99.90
13354;DHT22;6746;50.892;4.064;2022-11-15T18:08:53;12.00;99.90
13354;DHT22;6746;50.892;4.064;2022-11-15T18:11:35;12.00;99.90
13354;DHT22;6746;50.892;4.064;2022-11-15T18:14:13;12.00;99.90
13354;DHT22;6746;50.892;4.064;2022-11-15T18:16:50;12.00;99.90
13354;DHT22;6746;50.892;4.064;2022-11-15T18:19:31;12.00;99.90
13354;DHT22;6746;50.892;4.064;2022-11-15T18:22:09;12.00;99.90
13354;DHT22;6746;50.892;4.064;2022-11-15T18:24:49;12.00;99.90
13354;DHT22;6746;50.892;4.064;2022-11-15T18:27:29;12.00;99.90
13354;DHT22;6746;50.892;4.064;2022-11-15T18:30:10;12.00;99.90
13354;DHT22;6746;50.892;4.064;2022-11-15T18:32:48;12.00;99.90
13354;DHT22;6746;50.892;4.064;2022-11-15T18:35:26;12.00;99.90
13354;DHT22;6746;50.892;4.064;2022-11-15T18:38:08;12.00;99.90
13354;DHT22;6746;50.892;4.064;2022-11-15T18:40:46;12.00;99.90